»·PEaware :: N992W KOXR-KSBP

N992W :: KOXR-KSBP

FLIGHT INFORMATION

Flight Status: Arrived
Operator: Privately registered:
United States
More flights under this callsign
Pilot: Jad K. (11263)
Aircraft: CESSNA 172 SKYHAWK
(C172)
More flights by this aircraft type
Origin: KOXR Oxnard
United States
Destination: KSBP San Luis Co Regl
United States
More flights between these airports :: More routes between these airports
Route: +
File this flight plan on PilotEdge
Remarks:
Altitude:
(Current/Filed)
8,500ft
Speed:
(Current/Filed)
115kts
Departed: 31-Jul-18 08:52 AM
Arrived: 31-Jul-18 09:50 AM
Distance/Time
Traveled:
94nm/0:58
Distance/Time
To Go:
Arrived

Flight Plot

Page will automatically refresh every two minutes.

Flight plan parsing failed; only flown route is shown


Map Options




Map Legend


Flown Route
Filed Route
Departure Airport
Arrival Airport
Navaid (VOR, NDB)
Fix

Horizontal Profiles

Position Reports

Time Latitude Longitude Heading Altitude Ground
Speed
31-Jul-18 08:37 34.198815 -119.198488 359 42ft 0kts
31-Jul-18 08:38 34.198815 -119.198488 359 42ft 0kts
31-Jul-18 08:39 34.198815 -119.198488 359 42ft 0kts
31-Jul-18 08:40 34.198815 -119.198488 359 42ft 0kts
31-Jul-18 08:41 34.198815 -119.198488 359 42ft 0kts
31-Jul-18 08:42 34.198815 -119.198488 359 42ft 0kts
31-Jul-18 08:43 34.198815 -119.198488 359 42ft 0kts
31-Jul-18 08:44 34.198815 -119.198488 359 42ft 0kts
31-Jul-18 08:45 34.198815 -119.198488 359 42ft 0kts
31-Jul-18 08:46 34.199483 -119.198340 29 42ft 10kts
31-Jul-18 08:47 34.199913 -119.197522 5 42ft 0kts
31-Jul-18 08:48 34.199913 -119.197522 5 42ft 0kts
31-Jul-18 08:49 34.199913 -119.197522 5 42ft 0kts
31-Jul-18 08:50 34.199913 -119.197522 5 42ft 0kts
31-Jul-18 08:51 34.199913 -119.197522 5 42ft 0kts
31-Jul-18 08:52 34.200732 -119.197845 272 42ft 14kts
31-Jul-18 08:53 34.200719 -119.221990 268 407ft 89kts
31-Jul-18 08:54 34.201197 -119.251934 271 1052ft 90kts
31-Jul-18 08:55 34.202995 -119.282097 286 1653ft 91kts
31-Jul-18 08:56 34.215895 -119.308237 309 2236ft 91kts
31-Jul-18 08:57 34.232221 -119.331607 311 2771ft 92kts
31-Jul-18 08:58 34.249164 -119.354941 312 3286ft 92kts
31-Jul-18 08:59 34.266367 -119.376819 314 3853ft 87kts
31-Jul-18 09:00 34.282982 -119.397991 314 4377ft 88kts
31-Jul-18 09:01 34.299448 -119.419017 315 4862ft 88kts
31-Jul-18 09:02 34.316238 -119.440490 315 5357ft 87kts
31-Jul-18 09:03 34.332755 -119.461656 315 5850ft 85kts
31-Jul-18 09:04 34.348683 -119.482083 314 6337ft 81kts
31-Jul-18 09:05 34.363897 -119.501617 313 6781ft 81kts
31-Jul-18 09:06 34.379645 -119.521808 313 7186ft 83kts
31-Jul-18 09:07 34.395010 -119.541530 312 7571ft 83kts
31-Jul-18 09:08 34.406879 -119.556782 312 7867ft 82kts
31-Jul-18 09:09 34.422001 -119.576242 312 8249ft 80kts
31-Jul-18 09:10 34.436759 -119.595242 312 8504ft 87kts
31-Jul-18 09:11 34.454297 -119.617700 313 8496ft 112kts
31-Jul-18 09:12 34.475644 -119.645071 313 8492ft 119kts
31-Jul-18 09:13 34.497328 -119.672947 312 8484ft 109kts
31-Jul-18 09:14 34.516918 -119.698200 312 8488ft 99kts
31-Jul-18 09:15 34.535413 -119.722087 312 8489ft 96kts
31-Jul-18 09:16 34.553552 -119.745522 312 8490ft 95kts
31-Jul-18 09:17 34.571664 -119.768940 312 8490ft 95kts
31-Jul-18 09:18 34.589768 -119.792365 313 8490ft 95kts
31-Jul-18 09:19 34.607861 -119.815782 313 8490ft 95kts
31-Jul-18 09:20 34.625878 -119.839113 313 8490ft 94kts
31-Jul-18 09:21 34.643892 -119.862456 314 8490ft 94kts
31-Jul-18 09:22 34.661828 -119.885713 314 8490ft 94kts
31-Jul-18 09:23 34.679728 -119.908937 314 8490ft 94kts
31-Jul-18 09:24 34.697545 -119.932071 315 8490ft 93kts
31-Jul-18 09:25 34.715230 -119.955049 315 8490ft 93kts
31-Jul-18 09:26 34.732938 -119.978071 315 8490ft 92kts
31-Jul-18 09:27 34.750469 -120.000877 315 8490ft 92kts
31-Jul-18 09:28 34.769776 -120.025971 315 8196ft 116kts
31-Jul-18 09:29 34.792876 -120.056037 314 7729ft 130kts
31-Jul-18 09:30 34.817738 -120.088457 315 7228ft 127kts
31-Jul-18 09:31 34.840254 -120.117847 314 6722ft 117kts
31-Jul-18 09:32 34.860861 -120.145823 314 6498ft 103kts
31-Jul-18 09:33 34.880735 -120.172186 314 6504ft 107kts
31-Jul-18 09:34 34.901010 -120.198843 314 6504ft 108kts
31-Jul-18 09:35 34.921419 -120.225620 314 6506ft 108kts
31-Jul-18 09:36 34.941813 -120.252382 314 6509ft 108kts
31-Jul-18 09:37 34.962265 -120.279231 314 6509ft 108kts
31-Jul-18 09:38 34.982752 -120.306147 313 6509ft 108kts
31-Jul-18 09:39 35.003105 -120.332908 313 6509ft 108kts
31-Jul-18 09:40 35.023632 -120.359917 313 6417ft 116kts
31-Jul-18 09:41 35.047742 -120.391638 313 5812ft 128kts
31-Jul-18 09:42 35.071778 -120.423321 313 5207ft 126kts
31-Jul-18 09:43 35.096219 -120.453550 316 4606ft 125kts
31-Jul-18 09:44 35.120337 -120.483015 316 4016ft 124kts
31-Jul-18 09:45 35.144794 -120.512930 317 3416ft 124kts
31-Jul-18 09:46 35.169401 -120.539509 322 2752ft 105kts
31-Jul-18 09:47 35.191080 -120.562647 311 1947ft 102kts
31-Jul-18 09:48 35.207656 -120.588878 305 1299ft 91kts
31-Jul-18 09:49 35.220909 -120.612017 305 823ft 78kts
31-Jul-18 09:50 35.233026 -120.633457 305 239ft 73kts
31-Jul-18 09:51 35.237789 -120.640839 92 187ft 0kts

Navigation Log

Ident Type
Flight plan parsing failed, navigation log unavailable